Date,TemperatureHighF,TemperatureAvgF,TemperatureLowF,DewpointHighF,DewpointAvgF,DewpointLowF,HumidityHigh,HumidityAvg,HumidityLow,PressureMaxIn,PressureMinIn,WindSpeedMaxMPH,WindSpeedAvgMPH,GustSpeedMaxMPH,PrecipitationSumIn
2012-1-1,67,62,60,58,57,55,88,82,72,29.80,29.69,12,7,0,0.00
2012-1-2,67,62,58,58,56,53,86,79,70,29.84,29.72,16,7,19,0.00
2012-1-3,63,59,57,55,51,47,88,76,63,29.90,29.79,12,6,32,0.00
2012-1-4,63,58,56,56,52,50,85,81,77,29.92,29.81,12,6,17,0.00
2012-1-5,65,60,57,58,56,54,93,86,76,29.90,29.78,15,6,0,0.01
2012-1-6,62,60,58,60,56,54,93,89,81,29.85,29.75,8,3,11,0.10
2012-1-7,67,61,56,59,56,52,93,83,73,29.88,29.75,13,5,0,0.01
2012-1-8,67,62,58,59,54,47,87,75,60,29.84,29.72,12,5,0,0.00
2012-1-9,67,62,58,58,52,45,81,68,57,29.82,29.70,16,7,25,0.00
2012-1-10,70,62,54,57,45,37,83,56,42,29.84,29.68,10,4,16,0.00
2012-1-11,69,61,57,58,53,50,83,74,64,29.77,29.64,12,4,17,0.00
2012-1-12,64,64,63,54,54,53,71,71,70,29.76,29.75,10,9,13,0.00
2012-1-13,68,61,57,58,54,51,86,77,64,29.80,29.67,13,6,24,0.00
2012-1-14,69,61,56,59,53,49,92,75,56,29.86,29.75,15,6,0,0.00
2012-1-15,64,61,58,57,54,46,89,79,57,29.89,29.77,16,6,0,0.00
2012-1-16,64,60,57,56,54,53,93,81,69,29.89,29.77,12,5,25,0.01
2012-1-17,68,60,57,57,51,47,91,72,63,29.88,29.75,13,5,17,0.01
2012-1-18,68,60,55,56,52,50,87,76,62,29.84,29.72,13,6,18,0.00
2012-1-19,66,60,56,55,47,35,84,65,38,29.83,29.72,14,6,17,0.00
2012-1-20,64,64,64,56,56,56,76,76,75,29.70,29.70,6,6,10,0.00
2012-1-21,70,62,56,57,49,35,89,65,39,29.80,29.66,21,8,0,0.00
2012-1-22,70,61,55,57,50,37,87,67,43,29.80,29.68,18,6,0,0.00
2012-1-23,68,61,54,56,50,44,84,68,57,29.79,29.68,11,4,11,0.00
2012-1-24,63,62,61,54,53,53,74,74,72,29.81,29.80,9,7,16,0.00
2012-1-25,67,60,56,58,53,51,86,79,71,29.81,29.69,9,2,22,0.00
2012-1-26,69,61,55,58,52,46,81,72,60,29.80,29.68,13,4,16,0.00
2012-1-27,62,62,61,57,56,56,85,84,83,29.79,29.78,10,8,14,0.00
2012-1-28,69,60,55,56,52,47,91,76,57,29.83,29.71,11,4,0,0.00
2012-1-29,67,61,56,58,52,44,89,72,57,29.83,29.71,16,6,0,0.05
2012-1-30,64,59,56,56,52,48,89,78,68,29.82,29.72,16,7,0,0.00
2012-1-31,63,58,56,56,53,50,86,81,75,29.83,29.71,18,8,25,0.00
2012-2-1,65,59,57,57,50,47,81,72,64,29.79,29.70,20,13,33,0.00
2012-2-2,60,58,57,52,50,47,76,73,65,29.75,29.67,15,9,0,0.00
2012-2-3,69,64,59,58,50,47,79,63,51,29.73,29.60,16,7,21,0.00
2012-2-4,70,61,57,57,54,47,91,77,53,29.75,29.61,17,5,0,0.02
2012-2-5,71,64,57,60,57,53,92,79,61,29.77,29.64,12,4,0,0.03
2012-2-6,70,62,59,60,56,52,89,80,61,29.76,29.67,10,4,14,0.00
2012-2-7,70,63,59,60,57,55,94,82,63,29.77,29.66,15,5,18,0.05
2012-2-8,68,62,60,61,58,56,91,86,70,29.80,29.70,9,3,13,0.26
2012-2-9,61,59,58,56,52,48,86,77,69,29.84,29.74,12,6,0,0.02
2012-2-10,68,61,57,59,52,46,77,71,64,29.85,29.74,13,6,9,0.00
2012-2-11,69,62,57,59,54,43,89,75,58,29.85,29.71,12,4,0,0.00
2012-2-12,68,62,57,58,55,52,88,79,67,29.85,29.72,14,4,0,0.00
2012-2-13,71,63,56,57,52,49,85,68,54,29.82,29.68,15,7,3,0.00
2012-2-14,68,60,55,54,50,46,85,69,57,29.83,29.73,16,5,18,0.00
2012-2-15,70,68,63,58,57,52,81,69,62,29.85,29.70,10,7,16,0.00
2012-2-16,69,61,57,56,53,51,84,75,60,29.87,29.75,17,9,24,0.00
2012-2-17,69,62,57,57,52,48,85,70,60,29.83,29.70,12,5,17,0.00
2012-2-18,70,62,57,57,50,41,87,66,46,29.81,29.66,12,3,0,0.00
2012-2-19,71,62,56,59,55,51,93,79,60,29.80,29.67,10,3,0,0.00
2012-2-20,62,58,57,57,54,52,92,86,80,29.84,29.71,10,3,14,0.00
2012-2-21,69,66,61,57,53,48,70,62,50,29.88,29.73,13,8,27,0.00
2012-2-22,68,61,55,56,53,49,85,74,58,29.81,29.67,14,6,22,0.00
2012-2-23,64,58,56,52,47,43,70,66,56,29.78,29.71,14,6,10,0.00
2012-2-24,70,61,56,58,50,40,85,68,49,29.79,29.67,18,3,0,0.00
2012-2-25,71,62,57,60,56,52,92,81,67,29.80,29.66,13,4,0,0.01
2012-2-26,63,59,56,57,55,50,90,84,78,29.80,29.70,14,6,0,0.00
2012-2-27,61,61,60,54,54,54,81,79,77,29.75,29.74,6,4,15,0.00
2012-2-28,66,59,52,56,47,37,86,67,46,29.86,29.73,17,8,27,0.00
2012-2-29,64,58,55,53,52,50,88,81,63,29.85,29.78,22,9,34,0.01
2012-3-1,67,61,56,57,51,46,87,72,61,29.82,29.68,17,10,23,0.00
2012-3-2,74,63,56,59,46,32,81,55,36,29.79,29.63,19,8,16,0.00
2012-3-3,74,64,57,61,56,50,89,74,57,29.75,29.60,11,4,0,0.00
2012-3-4,74,66,62,61,56,49,87,70,57,29.75,29.61,13,5,0,0.00
2012-3-5,64,62,61,59,58,57,89,86,81,29.80,29.63,14,8,21,0.13
2012-3-6,63,59,57,56,54,52,89,82,75,29.83,29.69,18,7,22,0.03
2012-3-7,68,61,56,58,53,49,90,75,62,29.79,29.63,23,10,31,0.01
2012-3-8,66,63,61,57,56,53,83,78,72,29.77,29.65,13,9,24,0.00
2012-3-9,68,58,56,57,52,50,84,80,68,29.76,29.68,16,9,20,0.00
2012-3-10,68,61,56,58,54,50,89,79,68,29.82,29.69,17,8,0,0.00
2012-3-11,71,61,58,58,55,53,91,81,63,29.80,29.68,16,7,0,0.00
2012-3-12,63,62,61,55,54,54,78,77,75,29.81,29.77,13,8,21,0.00
2012-3-13,67,61,58,59,54,44,89,77,56,29.79,29.68,15,8,0,0.00
2012-3-14,66,61,58,59,56,53,88,83,75,29.78,29.68,18,9,0,0.00
2012-3-15,69,61,57,58,55,52,87,79,66,29.81,29.70,19,10,23,0.00
2012-3-16,66,60,59,58,56,55,90,84,73,29.83,29.71,16,7,38,0.00
2012-3-17,66,60,58,59,55,51,88,82,73,29.85,29.75,13,6,0,0.00
2012-3-18,68,60,57,59,53,50,87,77,65,29.85,29.74,18,7,0,0.00
2012-3-19,70,62,55,58,54,49,85,75,64,29.83,29.69,17,7,28,0.00
2012-3-20,70,60,56,59,54,52,89,82,65,29.76,29.62,7,2,12,0.00
2012-3-21,69,58,55,60,54,53,92,87,71,29.77,29.69,10,3,11,0.01
2012-3-22,71,63,59,60,56,53,87,79,69,29.78,29.66,11,6,17,0.00
2012-3-23,73,64,57,60,55,50,85,73,61,29.79,29.70,11,6,14,0.00
2012-3-24,72,62,57,60,57,52,92,83,63,29.79,29.69,9,2,0,0.38
2012-3-25,73,63,57,59,55,50,89,76,47,29.82,29.67,13,3,0,0.00
2012-3-26,67,61,59,57,50,47,79,68,55,29.79,29.65,9,2,7,0.00
2012-3-27,74,64,57,60,55,51,84,72,53,29.80,29.68,10,4,14,0.00
2012-3-28,69,62,58,61,57,54,90,85,73,29.76,29.65,14,5,0,0.00
2012-3-29,71,64,58,60,55,50,88,73,62,29.75,29.65,14,8,17,0.00
2012-3-30,75,65,59,62,58,55,88,79,64,29.76,29.66,13,5,17,0.00
2012-3-31,76,66,59,63,58,51,92,76,61,29.77,29.62,12,4,0,0.00
2012-4-1,74,64,60,62,59,57,94,84,61,29.73,29.60,12,2,0,0.89
2012-4-2,66,62,61,61,58,58,94,89,82,29.71,29.64,5,2,3,0.00
2012-4-3,70,64,59,63,60,55,93,87,75,29.77,29.64,7,1,12,0.08
2012-4-4,66,61,59,59,56,55,89,85,77,29.76,29.67,4,1,6,0.00
2012-4-5,74,64,60,64,59,54,93,83,62,29.77,29.63,10,2,0,0.13
2012-4-6,72,65,59,63,59,55,90,82,68,29.78,29.67,9,2,0,0.01
2012-4-7,72,67,60,64,61,55,89,80,70,29.76,29.68,10,4,0,0.00
2012-4-8,69,62,59,59,55,46,92,77,54,29.81,29.73,13,4,0,0.00
2012-4-9,72,64,58,59,52,45,84,67,54,29.78,29.65,12,6,19,0.00
2012-4-10,72,63,57,59,56,50,91,77,60,29.79,29.68,14,4,0,0.00
2012-4-11,69,62,58,60,57,54,92,84,69,29.84,29.73,8,2,12,0.01
2012-4-12,74,65,58,58,54,52,85,70,46,29.85,29.71,12,3,13,0.01
2012-4-13,74,63,58,56,50,48,71,63,48,29.83,29.75,9,2,13,0.00
2012-4-14,74,64,57,61,57,53,90,78,59,29.82,29.67,13,4,0,0.00
2012-4-15,75,64,59,61,57,52,91,78,58,29.79,29.66,13,6,0,0.00
2012-4-16,74,64,59,64,58,53,94,83,62,29.77,29.65,9,2,0,1.20
2012-4-17,68,61,58,62,58,54,94,88,73,29.80,29.69,6,1,0,1.53
2012-4-18,65,62,61,61,60,59,94,93,88,29.74,29.70,4,2,6,0.42
2012-4-19,71,66,63,63,61,59,94,84,68,29.77,29.66,8,3,12,0.80
2012-4-20,69,68,66,62,62,61,85,81,76,29.76,29.75,7,4,7,0.00
2012-4-21,72,64,59,64,59,56,94,86,73,29.79,29.64,7,2,0,0.76
2012-4-22,74,65,59,64,57,44,93,77,47,29.79,29.66,11,3,0,0.01
2012-4-23,67,62,58,59,54,50,84,77,68,29.80,29.68,15,6,18,0.00
2012-4-24,68,65,62,60,58,56,82,79,72,29.79,29.70,14,7,19,0.00
2012-4-25,67,62,58,59,56,54,89,83,75,29.78,29.70,14,6,16,0.00
2012-4-26,72,67,61,60,57,56,87,72,61,29.80,29.70,6,3,11,0.05
2012-4-27,68,64,61,61,59,57,92,84,75,29.81,29.73,4,1,5,0.11
2012-4-30,72,70,67,63,62,60,80,74,66,29.74,29.70,12,6,17,0.00
2012-5-2,71,70,67,63,61,60,81,76,70,29.74,29.73,9,6,11,0.05
2012-5-3,70,68,65,62,62,61,88,81,75,29.66,29.63,6,5,15,0.00
2012-5-4,73,68,63,63,62,60,93,83,69,29.75,29.67,7,3,14,0.06
2012-5-7,72,66,61,63,60,57,93,81,63,29.76,29.68,8,2,11,0.54
2012-5-8,72,69,68,63,60,56,82,71,63,29.76,29.75,8,5,11,0.01
2012-5-9,72,67,65,62,61,60,85,80,69,29.64,29.63,8,4,12,0.00
2012-5-10,73,70,65,63,61,57,89,73,61,29.69,29.60,12,6,17,0.00
2012-5-11,71,69,67,62,61,60,79,76,72,29.74,29.73,7,5,19,0.00
2012-5-14,74,72,70,62,60,59,70,68,65,29.71,29.67,5,2,11,0.00
2012-5-15,70,69,67,62,61,60,79,77,75,29.74,29.72,5,3,9,0.00
2012-7-21,70,65,62,62,60,59,89,84,74,29.75,29.66,10,3,0,0.01
2012-7-23,66,66,65,61,60,59,85,82,79,29.80,29.78,10,6,19,0.00
2012-7-24,68,65,62,61,60,57,91,83,76,29.81,29.70,7,3,11,0.13
2012-7-26,71,70,70,61,60,60,72,71,69,29.71,29.71,4,3,9,0.00
2012-7-27,71,68,66,64,62,60,84,81,75,29.73,29.66,10,6,20,0.00
2012-8-1,74,70,66,65,62,60,89,75,64,29.84,29.72,11,5,16,0.00
2012-8-3,72,70,67,62,60,58,77,71,61,29.77,29.71,12,7,17,0.00
2012-8-6,72,69,64,62,59,53,91,73,57,29.78,29.66,9,4,11,0.01
2012-8-7,70,68,66,61,60,59,78,74,70,29.76,29.75,7,3,7,0.01
2012-8-9,74,66,62,64,62,60,94,86,64,29.72,29.64,8,2,11,0.56
2012-8-10,71,69,63,63,62,61,94,78,73,29.77,29.72,7,2,11,0.16
2012-8-14,71,64,61,63,60,58,95,88,69,29.78,29.69,8,2,12,1.31
2012-8-16,72,69,66,63,62,60,82,78,73,29.82,29.79,9,6,18,0.00
2012-10-2,76,74,74,64,64,63,71,69,67,29.95,29.94,5,4,9,0.00
2012-11-12,64,61,60,60,58,57,93,90,87,29.77,29.67,7,2,0,0.01
2012-11-13,70,64,60,62,59,56,92,85,73,29.80,29.66,11,3,10,0.02
2012-11-14,65,62,60,61,59,58,94,90,85,29.81,29.68,11,3,20,0.17
2012-11-15,63,59,57,59,55,54,90,86,83,29.83,29.74,8,3,9,0.00
2012-11-16,64,62,61,60,58,58,91,88,86,29.80,29.73,6,1,0,0.00
2012-11-17,65,62,59,62,58,56,92,89,82,29.84,29.72,11,2,0,0.42
2012-11-18,67,62,59,60,57,55,92,85,74,29.85,29.75,11,4,0,0.00
2012-11-19,62,60,59,58,56,55,92,87,83,29.82,29.76,5,2,1,0.00
2012-11-20,66,63,62,61,60,59,94,89,82,29.76,29.65,9,3,31,0.06
2012-11-21,64,62,61,61,59,58,93,90,87,29.80,29.68,8,3,18,0.04
2012-11-22,65,61,58,60,57,55,93,88,81,29.84,29.74,9,2,5,0.09
2012-11-23,66,59,55,59,54,51,89,83,75,29.85,29.71,14,5,0,0.00
2012-11-24,65,60,54,59,55,50,91,84,77,29.84,29.72,13,5,0,0.00
2012-11-25,64,61,58,59,56,54,92,86,78,29.84,29.72,12,4,0,0.22
2012-11-26,67,62,59,62,59,57,93,90,81,29.83,29.71,10,3,14,0.22
2012-11-27,71,65,61,63,60,56,88,83,70,29.82,29.69,9,4,20,0.00
2012-11-28,71,64,62,60,58,54,90,84,56,29.82,29.72,12,3,22,0.02
2012-11-29,66,62,60,60,58,54,92,86,72,29.85,29.74,13,4,15,0.13
2012-11-30,64,61,60,59,57,56,93,87,81,29.86,29.76,7,3,13,0.02
2012-12-1,66,62,59,59,53,45,93,74,55,29.87,29.75,8,2,0,0.02
2012-12-2,68,62,57,61,57,53,92,85,74,29.85,29.74,10,3,0,0.01
2012-12-3,67,62,59,60,57,56,92,85,75,29.84,29.73,11,4,15,0.00
2012-12-4,68,60,57,60,55,53,89,83,73,29.85,29.75,5,2,7,0.00
2012-12-11,71,69,66,63,62,60,82,78,73,29.67,29.64,9,5,17,0.00
2012-12-12,64,62,60,56,55,55,84,79,73,29.73,29.70,8,4,15,0.01
2012-12-13,66,64,61,59,57,55,89,79,73,29.83,29.73,11,6,17,0.00
2012-12-14,69,66,62,59,57,55,86,73,63,29.82,29.71,9,5,18,0.00
2012-12-17,70,67,64,60,58,57,78,75,70,29.79,29.73,8,6,13,0.00
2012-12-18,69,68,65,58,57,53,71,68,65,29.79,29.69,9,6,17,0.00
2012-12-21,66,63,60,59,58,56,90,84,78,29.77,29.67,12,6,20,0.00
2013-1-1,69,62,58,60,56,52,89,81,72,29.79,29.68,12,6,0,0.00